sensor_id;sensor_type;location;lat;lon;timestamp;temperature;humidity
20957;DHT22;10637;47.970;7.830;2023-08-17T00:00:51;23.00;99.90
20957;DHT22;10637;47.970;7.830;2023-08-17T00:05:53;23.10;99.90
20957;DHT22;10637;47.970;7.830;2023-08-17T00:10:54;23.10;99.90
20957;DHT22;10637;47.970;7.830;2023-08-17T00:15:56;23.10;99.90
20957;DHT22;10637;47.970;7.830;2023-08-17T00:20:58;23.00;99.90
20957;DHT22;10637;47.970;7.830;2023-08-17T00:26:00;22.90;99.90
20957;DHT22;10637;47.970;7.830;2023-08-17T00:31:02;22.60;99.90
20957;DHT22;10637;47.970;7.830;2023-08-17T00:36:04;22.50;99.90
20957;DHT22;10637;47.970;7.830;2023-08-17T00:41:06;22.90;99.90
20957;DHT22;10637;47.970;7.830;2023-08-17T00:46:08;23.00;99.90
20957;DHT22;10637;47.970;7.830;2023-08-17T00:51:10;22.70;99.90
20957;DHT22;10637;47.970;7.830;2023-08-17T00:56:12;22.70;99.90
20957;DHT22;10637;47.970;7.830;2023-08-17T01:01:14;22.70;99.90
20957;DHT22;10637;47.970;7.830;2023-08-17T01:06:17;22.50;99.90
20957;DHT22;10637;47.970;7.830;2023-08-17T01:11:29;22.30;99.90
20957;DHT22;10637;47.970;7.830;2023-08-17T01:16:39;22.40;99.90
20957;DHT22;10637;47.970;7.830;2023-08-17T01:21:44;22.40;99.90
20957;DHT22;10637;47.970;7.830;2023-08-17T01:26:49;22.60;99.90
20957;DHT22;10637;47.970;7.830;2023-08-17T01:32:07;22.70;99.90
20957;DHT22;10637;47.970;7.830;2023-08-17T01:37:11;22.60;99.90
20957;DHT22;10637;47.970;7.830;2023-08-17T01:42:14;22.60;99.90
20957;DHT22;10637;47.970;7.830;2023-08-17T01:47:20;22.80;99.90
20957;DHT22;10637;47.970;7.830;2023-08-17T01:52:24;23.00;99.90
20957;DHT22;10637;47.970;7.830;2023-08-17T01:57:27;23.30;99.90
20957;DHT22;10637;47.970;7.830;2023-08-17T02:02:29;23.20;99.90
20957;DHT22;10637;47.970;7.830;2023-08-17T02:07:31;23.20;99.90
20957;DHT22;10637;47.970;7.830;2023-08-17T02:12:33;23.20;99.90
20957;DHT22;10637;47.970;7.830;2023-08-17T02:17:34;23.20;99.90
20957;DHT22;10637;47.970;7.830;2023-08-17T02:22:36;23.00;99.90
20957;DHT22;10637;47.970;7.830;2023-08-17T02:27:38;22.90;99.90
20957;DHT22;10637;47.970;7.830;2023-08-17T02:32:40;22.80;99.90
20957;DHT22;10637;47.970;7.830;2023-08-17T02:37:42;22.80;99.90
20957;DHT22;10637;47.970;7.830;2023-08-17T02:42:43;23.00;99.90
20957;DHT22;10637;47.970;7.830;2023-08-17T02:47:45;23.00;99.90
20957;DHT22;10637;47.970;7.830;2023-08-17T02:52:47;23.00;99.90
20957;DHT22;10637;47.970;7.830;2023-08-17T02:57:49;22.60;99.90
20957;DHT22;10637;47.970;7.830;2023-08-17T03:02:50;23.00;99.90
20957;DHT22;10637;47.970;7.830;2023-08-17T03:07:52;23.20;99.90
20957;DHT22;10637;47.970;7.830;2023-08-17T03:12:54;23.40;99.90
20957;DHT22;10637;47.970;7.830;2023-08-17T03:17:56;23.30;99.90
20957;DHT22;10637;47.970;7.830;2023-08-17T03:22:58;23.00;99.90
20957;DHT22;10637;47.970;7.830;2023-08-17T03:28:00;23.20;99.90
20957;DHT22;10637;47.970;7.830;2023-08-17T03:33:02;23.30;99.90
20957;DHT22;10637;47.970;7.830;2023-08-17T03:38:04;23.40;99.90
20957;DHT22;10637;47.970;7.830;2023-08-17T03:43:05;23.70;99.90
20957;DHT22;10637;47.970;7.830;2023-08-17T03:48:07;23.80;99.90
20957;DHT22;10637;47.970;7.830;2023-08-17T03:53:09;23.90;99.90
20957;DHT22;10637;47.970;7.830;2023-08-17T03:58:11;23.60;99.90
20957;DHT22;10637;47.970;7.830;2023-08-17T04:03:12;23.50;99.90
20957;DHT22;10637;47.970;7.830;2023-08-17T04:08:14;23.50;99.90
20957;DHT22;10637;47.970;7.830;2023-08-17T04:13:16;23.40;99.90
20957;DHT22;10637;47.970;7.830;2023-08-17T04:18:18;23.30;99.90
20957;DHT22;10637;47.970;7.830;2023-08-17T04:23:19;23.10;99.90
20957;DHT22;10637;47.970;7.830;2023-08-17T04:28:21;23.30;99.90
20957;DHT22;10637;47.970;7.830;2023-08-17T04:33:23;23.10;99.90
20957;DHT22;10637;47.970;7.830;2023-08-17T04:38:25;23.30;99.90
20957;DHT22;10637;47.970;7.830;2023-08-17T04:43:27;23.40;99.90
20957;DHT22;10637;47.970;7.830;2023-08-17T04:48:28;23.50;99.90
20957;DHT22;10637;47.970;7.830;2023-08-17T04:53:30;23.60;99.90
20957;DHT22;10637;47.970;7.830;2023-08-17T04:58:32;23.60;99.90
20957;DHT22;10637;47.970;7.830;2023-08-17T05:03:34;23.40;99.90
20957;DHT22;10637;47.970;7.830;2023-08-17T05:08:36;23.10;99.90
20957;DHT22;10637;47.970;7.830;2023-08-17T05:13:38;23.30;99.90
20957;DHT22;10637;47.970;7.830;2023-08-17T05:18:39;23.40;99.90
20957;DHT22;10637;47.970;7.830;2023-08-17T05:23:41;23.10;99.90
20957;DHT22;10637;47.970;7.830;2023-08-17T05:28:43;23.30;99.90
20957;DHT22;10637;47.970;7.830;2023-08-17T05:33:46;23.20;99.90
20957;DHT22;10637;47.970;7.830;2023-08-17T05:38:48;23.30;99.90
20957;DHT22;10637;47.970;7.830;2023-08-17T05:43:50;23.10;99.90
20957;DHT22;10637;47.970;7.830;2023-08-17T05:48:52;22.80;99.90
20957;DHT22;10637;47.970;7.830;2023-08-17T05:53:54;23.40;99.90
20957;DHT22;10637;47.970;7.830;2023-08-17T05:58:56;23.70;99.90
20957;DHT22;10637;47.970;7.830;2023-08-17T06:03:58;24.00;99.90
20957;DHT22;10637;47.970;7.830;2023-08-17T06:08:59;24.10;99.90
20957;DHT22;10637;47.970;7.830;2023-08-17T06:14:01;24.10;99.90
20957;DHT22;10637;47.970;7.830;2023-08-17T06:19:03;24.00;99.90
20957;DHT22;10637;47.970;7.830;2023-08-17T06:24:05;24.20;99.90
20957;DHT22;10637;47.970;7.830;2023-08-17T06:29:10;23.50;99.90
20957;DHT22;10637;47.970;7.830;2023-08-17T06:34:12;23.90;99.90
20957;DHT22;10637;47.970;7.830;2023-08-17T06:39:14;24.40;99.90
20957;DHT22;10637;47.970;7.830;2023-08-17T06:44:15;24.30;99.90
20957;DHT22;10637;47.970;7.830;2023-08-17T06:49:17;23.50;99.90
20957;DHT22;10637;47.970;7.830;2023-08-17T06:54:19;23.60;99.90
20957;DHT22;10637;47.970;7.830;2023-08-17T06:59:21;23.20;99.90
20957;DHT22;10637;47.970;7.830;2023-08-17T07:04:24;23.10;99.90
20957;DHT22;10637;47.970;7.830;2023-08-17T07:09:26;23.40;99.90
20957;DHT22;10637;47.970;7.830;2023-08-17T07:14:29;23.50;99.90
20957;DHT22;10637;47.970;7.830;2023-08-17T07:19:31;23.60;99.90
20957;DHT22;10637;47.970;7.830;2023-08-17T07:24:54;23.20;99.90
20957;DHT22;10637;47.970;7.830;2023-08-17T07:29:56;23.70;99.90
20957;DHT22;10637;47.970;7.830;2023-08-17T07:34:58;24.00;99.90
20957;DHT22;10637;47.970;7.830;2023-08-17T07:40:00;24.20;99.90
20957;DHT22;10637;47.970;7.830;2023-08-17T07:45:02;24.50;99.90
20957;DHT22;10637;47.970;7.830;2023-08-17T07:50:08;24.90;99.90
20957;DHT22;10637;47.970;7.830;2023-08-17T07:55:10;25.40;99.90
20957;DHT22;10637;47.970;7.830;2023-08-17T08:00:13;25.30;99.90
20957;DHT22;10637;47.970;7.830;2023-08-17T08:05:15;25.60;99.90
20957;DHT22;10637;47.970;7.830;2023-08-17T08:10:17;25.20;99.90
20957;DHT22;10637;47.970;7.830;2023-08-17T08:15:19;25.50;99.90
20957;DHT22;10637;47.970;7.830;2023-08-17T08:20:21;25.30;99.90
20957;DHT22;10637;47.970;7.830;2023-08-17T08:25:23;25.00;99.90
20957;DHT22;10637;47.970;7.830;2023-08-17T08:30:25;25.00;99.90
20957;DHT22;10637;47.970;7.830;2023-08-17T08:35:28;24.10;99.90
20957;DHT22;10637;47.970;7.830;2023-08-17T08:40:30;24.20;99.90
20957;DHT22;10637;47.970;7.830;2023-08-17T08:45:32;23.80;99.90
20957;DHT22;10637;47.970;7.830;2023-08-17T08:50:36;24.50;99.90
20957;DHT22;10637;47.970;7.830;2023-08-17T08:55:39;25.00;99.90
20957;DHT22;10637;47.970;7.830;2023-08-17T09:00:46;24.90;99.90
20957;DHT22;10637;47.970;7.830;2023-08-17T09:05:50;25.30;99.90
20957;DHT22;10637;47.970;7.830;2023-08-17T09:10:51;25.40;99.90
20957;DHT22;10637;47.970;7.830;2023-08-17T09:15:53;26.00;99.90
20957;DHT22;10637;47.970;7.830;2023-08-17T09:20:55;26.60;99.90
20957;DHT22;10637;47.970;7.830;2023-08-17T09:25:57;27.40;99.90
20957;DHT22;10637;47.970;7.830;2023-08-17T09:31:05;28.40;99.90
20957;DHT22;10637;47.970;7.830;2023-08-17T09:36:10;28.80;99.90
20957;DHT22;10637;47.970;7.830;2023-08-17T09:41:12;29.30;99.90
20957;DHT22;10637;47.970;7.830;2023-08-17T09:46:15;29.90;99.90
20957;DHT22;10637;47.970;7.830;2023-08-17T09:51:17;29.80;99.90
20957;DHT22;10637;47.970;7.830;2023-08-17T09:56:21;30.30;99.90
20957;DHT22;10637;47.970;7.830;2023-08-17T10:01:26;30.70;99.90
20957;DHT22;10637;47.970;7.830;2023-08-17T10:06:30;29.90;99.90
20957;DHT22;10637;47.970;7.830;2023-08-17T10:11:37;30.00;99.90
20957;DHT22;10637;47.970;7.830;2023-08-17T10:16:44;30.60;99.90
20957;DHT22;10637;47.970;7.830;2023-08-17T10:21:50;30.40;99.90
20957;DHT22;10637;47.970;7.830;2023-08-17T10:26:55;30.40;99.90
20957;DHT22;10637;47.970;7.830;2023-08-17T10:31:57;31.30;99.90
20957;DHT22;10637;47.970;7.830;2023-08-17T10:37:00;31.60;99.90
20957;DHT22;10637;47.970;7.830;2023-08-17T10:42:03;31.70;99.90
20957;DHT22;10637;47.970;7.830;2023-08-17T10:52:31;33.20;99.90
20957;DHT22;10637;47.970;7.830;2023-08-17T10:57:37;34.30;99.90
20957;DHT22;10637;47.970;7.830;2023-08-17T11:02:40;34.60;99.90
20957;DHT22;10637;47.970;7.830;2023-08-17T11:07:44;35.10;99.90
20957;DHT22;10637;47.970;7.830;2023-08-17T11:12:46;35.30;99.90
20957;DHT22;10637;47.970;7.830;2023-08-17T11:17:54;35.60;99.90
20957;DHT22;10637;47.970;7.830;2023-08-17T11:22:57;36.00;99.90
20957;DHT22;10637;47.970;7.830;2023-08-17T11:28:00;36.00;99.90
20957;DHT22;10637;47.970;7.830;2023-08-17T11:33:03;35.00;97.80
20957;DHT22;10637;47.970;7.830;2023-08-17T11:38:05;35.10;99.90
20957;DHT22;10637;47.970;7.830;2023-08-17T11:43:09;36.20;98.90
20957;DHT22;10637;47.970;7.830;2023-08-17T11:48:13;36.70;98.00
20957;DHT22;10637;47.970;7.830;2023-08-17T11:53:18;36.60;97.20
20957;DHT22;10637;47.970;7.830;2023-08-17T11:58:42;37.10;95.60
20957;DHT22;10637;47.970;7.830;2023-08-17T12:03:45;37.20;95.50
20957;DHT22;10637;47.970;7.830;2023-08-17T12:08:47;37.20;93.70
20957;DHT22;10637;47.970;7.830;2023-08-17T12:13:51;36.40;91.70
20957;DHT22;10637;47.970;7.830;2023-08-17T12:18:53;36.70;96.10
20957;DHT22;10637;47.970;7.830;2023-08-17T12:23:55;37.40;94.80
20957;DHT22;10637;47.970;7.830;2023-08-17T12:28:57;37.60;94.40
20957;DHT22;10637;47.970;7.830;2023-08-17T12:33:59;38.00;94.70
20957;DHT22;10637;47.970;7.830;2023-08-17T12:39:01;38.30;93.80
20957;DHT22;10637;47.970;7.830;2023-08-17T12:44:05;37.40;94.00
20957;DHT22;10637;47.970;7.830;2023-08-17T12:49:07;36.70;93.80
20957;DHT22;10637;47.970;7.830;2023-08-17T12:54:09;35.90;93.30
20957;DHT22;10637;47.970;7.830;2023-08-17T12:59:11;35.20;93.30
20957;DHT22;10637;47.970;7.830;2023-08-17T13:04:13;35.00;95.60
20957;DHT22;10637;47.970;7.830;2023-08-17T13:09:14;34.70;94.90
20957;DHT22;10637;47.970;7.830;2023-08-17T13:14:17;34.50;96.40
20957;DHT22;10637;47.970;7.830;2023-08-17T13:19:19;34.10;94.60
20957;DHT22;10637;47.970;7.830;2023-08-17T13:24:21;34.10;97.40
20957;DHT22;10637;47.970;7.830;2023-08-17T13:29:23;34.30;94.10
20957;DHT22;10637;47.970;7.830;2023-08-17T13:34:24;34.20;96.10
20957;DHT22;10637;47.970;7.830;2023-08-17T13:39:26;34.80;96.50
20957;DHT22;10637;47.970;7.830;2023-08-17T13:44:28;35.20;95.70
20957;DHT22;10637;47.970;7.830;2023-08-17T13:49:29;35.30;93.90
20957;DHT22;10637;47.970;7.830;2023-08-17T13:54:31;34.70;95.70
20957;DHT22;10637;47.970;7.830;2023-08-17T13:59:33;34.70;94.70
20957;DHT22;10637;47.970;7.830;2023-08-17T14:04:35;34.30;93.50
20957;DHT22;10637;47.970;7.830;2023-08-17T14:09:36;33.70;96.80
20957;DHT22;10637;47.970;7.830;2023-08-17T14:14:38;34.10;94.40
20957;DHT22;10637;47.970;7.830;2023-08-17T14:19:40;34.00;96.60
20957;DHT22;10637;47.970;7.830;2023-08-17T14:24:44;33.30;96.20
20957;DHT22;10637;47.970;7.830;2023-08-17T14:29:45;32.70;97.30
20957;DHT22;10637;47.970;7.830;2023-08-17T14:34:49;32.10;99.10
20957;DHT22;10637;47.970;7.830;2023-08-17T14:39:50;32.10;99.80
20957;DHT22;10637;47.970;7.830;2023-08-17T14:44:52;32.20;99.70
20957;DHT22;10637;47.970;7.830;2023-08-17T14:49:54;32.70;99.90
20957;DHT22;10637;47.970;7.830;2023-08-17T14:54:57;33.70;99.50
20957;DHT22;10637;47.970;7.830;2023-08-17T14:59:59;34.20;98.20
20957;DHT22;10637;47.970;7.830;2023-08-17T15:05:00;34.10;97.10
20957;DHT22;10637;47.970;7.830;2023-08-17T15:10:02;33.00;97.60
20957;DHT22;10637;47.970;7.830;2023-08-17T15:15:04;32.30;99.80
20957;DHT22;10637;47.970;7.830;2023-08-17T15:20:06;31.80;99.90
20957;DHT22;10637;47.970;7.830;2023-08-17T15:25:08;31.50;99.90
20957;DHT22;10637;47.970;7.830;2023-08-17T15:30:10;31.10;99.90
20957;DHT22;10637;47.970;7.830;2023-08-17T15:35:13;30.80;99.90
20957;DHT22;10637;47.970;7.830;2023-08-17T15:40:15;30.70;99.90
20957;DHT22;10637;47.970;7.830;2023-08-17T15:45:17;30.30;99.90
20957;DHT22;10637;47.970;7.830;2023-08-17T15:50:19;30.20;99.90
20957;DHT22;10637;47.970;7.830;2023-08-17T15:55:21;30.20;99.90
20957;DHT22;10637;47.970;7.830;2023-08-17T16:00:23;30.00;99.90
20957;DHT22;10637;47.970;7.830;2023-08-17T16:05:25;29.80;99.90
20957;DHT22;10637;47.970;7.830;2023-08-17T16:10:26;29.60;99.90
20957;DHT22;10637;47.970;7.830;2023-08-17T16:15:28;29.90;99.90
20957;DHT22;10637;47.970;7.830;2023-08-17T16:20:30;30.00;99.90
20957;DHT22;10637;47.970;7.830;2023-08-17T16:25:35;30.60;99.90
20957;DHT22;10637;47.970;7.830;2023-08-17T16:30:36;30.60;99.90
20957;DHT22;10637;47.970;7.830;2023-08-17T16:35:40;30.70;99.90
20957;DHT22;10637;47.970;7.830;2023-08-17T16:40:42;30.80;99.90
20957;DHT22;10637;47.970;7.830;2023-08-17T16:45:44;30.80;99.90
20957;DHT22;10637;47.970;7.830;2023-08-17T16:50:46;30.90;99.90
20957;DHT22;10637;47.970;7.830;2023-08-17T16:55:47;30.90;99.90
20957;DHT22;10637;47.970;7.830;2023-08-17T17:00:55;30.90;99.90
20957;DHT22;10637;47.970;7.830;2023-08-17T17:05:57;30.80;99.90
20957;DHT22;10637;47.970;7.830;2023-08-17T17:10:59;30.70;99.90
20957;DHT22;10637;47.970;7.830;2023-08-17T17:16:00;30.60;99.90
20957;DHT22;10637;47.970;7.830;2023-08-17T17:21:02;30.80;99.90
20957;DHT22;10637;47.970;7.830;2023-08-17T17:26:04;30.80;99.90
20957;DHT22;10637;47.970;7.830;2023-08-17T17:31:09;30.70;99.90
20957;DHT22;10637;47.970;7.830;2023-08-17T17:36:11;30.50;99.90
20957;DHT22;10637;47.970;7.830;2023-08-17T17:41:13;30.40;99.90
20957;DHT22;10637;47.970;7.830;2023-08-17T17:46:15;30.30;99.90
20957;DHT22;10637;47.970;7.830;2023-08-17T17:51:17;30.50;99.90
20957;DHT22;10637;47.970;7.830;2023-08-17T17:56:36;30.60;99.90
20957;DHT22;10637;47.970;7.830;2023-08-17T18:01:38;30.60;99.90
20957;DHT22;10637;47.970;7.830;2023-08-17T18:06:39;30.20;99.90
20957;DHT22;10637;47.970;7.830;2023-08-17T18:11:41;29.90;99.90
20957;DHT22;10637;47.970;7.830;2023-08-17T18:16:43;29.60;99.90
20957;DHT22;10637;47.970;7.830;2023-08-17T18:21:45;29.40;99.90
20957;DHT22;10637;47.970;7.830;2023-08-17T18:26:47;29.10;99.90
20957;DHT22;10637;47.970;7.830;2023-08-17T18:31:48;28.50;99.90
20957;DHT22;10637;47.970;7.830;2023-08-17T18:36:51;28.40;99.90
20957;DHT22;10637;47.970;7.830;2023-08-17T18:41:53;28.10;99.90
20957;DHT22;10637;47.970;7.830;2023-08-17T18:46:55;27.70;99.90
20957;DHT22;10637;47.970;7.830;2023-08-17T18:51:56;27.50;99.90
20957;DHT22;10637;47.970;7.830;2023-08-17T18:56:58;27.10;99.90
20957;DHT22;10637;47.970;7.830;2023-08-17T19:02:00;26.80;99.90
20957;DHT22;10637;47.970;7.830;2023-08-17T19:07:02;26.60;99.90
20957;DHT22;10637;47.970;7.830;2023-08-17T19:12:04;26.70;99.90
20957;DHT22;10637;47.970;7.830;2023-08-17T19:17:05;26.60;99.90
20957;DHT22;10637;47.970;7.830;2023-08-17T19:22:08;26.40;99.90
20957;DHT22;10637;47.970;7.830;2023-08-17T19:27:10;26.40;99.90
20957;DHT22;10637;47.970;7.830;2023-08-17T19:32:12;26.30;99.90
20957;DHT22;10637;47.970;7.830;2023-08-17T19:37:14;25.80;99.90
20957;DHT22;10637;47.970;7.830;2023-08-17T19:42:15;25.80;99.90
20957;DHT22;10637;47.970;7.830;2023-08-17T19:47:17;25.40;99.90
20957;DHT22;10637;47.970;7.830;2023-08-17T19:52:21;25.00;99.90
20957;DHT22;10637;47.970;7.830;2023-08-17T19:57:24;25.30;99.90
20957;DHT22;10637;47.970;7.830;2023-08-17T20:02:27;25.20;99.90
20957;DHT22;10637;47.970;7.830;2023-08-17T20:07:30;25.30;99.90
20957;DHT22;10637;47.970;7.830;2023-08-17T20:12:32;24.80;99.90
20957;DHT22;10637;47.970;7.830;2023-08-17T20:17:34;24.90;99.90
20957;DHT22;10637;47.970;7.830;2023-08-17T20:22:35;24.90;99.90
20957;DHT22;10637;47.970;7.830;2023-08-17T20:27:37;24.90;99.90
20957;DHT22;10637;47.970;7.830;2023-08-17T20:32:39;24.80;99.90
20957;DHT22;10637;47.970;7.830;2023-08-17T20:37:41;24.80;99.90
20957;DHT22;10637;47.970;7.830;2023-08-17T20:42:42;24.50;99.90
20957;DHT22;10637;47.970;7.830;2023-08-17T20:47:44;24.30;99.90
20957;DHT22;10637;47.970;7.830;2023-08-17T20:52:48;24.30;99.90
20957;DHT22;10637;47.970;7.830;2023-08-17T20:57:50;24.30;99.90
20957;DHT22;10637;47.970;7.830;2023-08-17T21:02:51;24.20;99.90
20957;DHT22;10637;47.970;7.830;2023-08-17T21:07:54;24.10;99.90
20957;DHT22;10637;47.970;7.830;2023-08-17T21:12:57;24.10;99.90
20957;DHT22;10637;47.970;7.830;2023-08-17T21:17:59;24.00;99.90
20957;DHT22;10637;47.970;7.830;2023-08-17T21:23:01;23.90;99.90
20957;DHT22;10637;47.970;7.830;2023-08-17T21:28:03;24.00;99.90
20957;DHT22;10637;47.970;7.830;2023-08-17T21:33:04;24.00;99.90
20957;DHT22;10637;47.970;7.830;2023-08-17T21:38:06;24.00;99.90
20957;DHT22;10637;47.970;7.830;2023-08-17T21:43:08;24.10;99.90
20957;DHT22;10637;47.970;7.830;2023-08-17T21:48:10;24.10;99.90
20957;DHT22;10637;47.970;7.830;2023-08-17T21:53:13;24.00;99.90
20957;DHT22;10637;47.970;7.830;2023-08-17T21:58:15;23.90;99.90
20957;DHT22;10637;47.970;7.830;2023-08-17T22:03:17;23.90;99.90
20957;DHT22;10637;47.970;7.830;2023-08-17T22:08:19;23.60;99.90
20957;DHT22;10637;47.970;7.830;2023-08-17T22:13:21;23.70;99.90
20957;DHT22;10637;47.970;7.830;2023-08-17T22:18:23;23.40;99.90
20957;DHT22;10637;47.970;7.830;2023-08-17T22:23:24;23.40;99.90
20957;DHT22;10637;47.970;7.830;2023-08-17T22:28:26;23.40;99.90
20957;DHT22;10637;47.970;7.830;2023-08-17T22:33:28;22.80;99.90
20957;DHT22;10637;47.970;7.830;2023-08-17T22:38:30;22.60;99.90
20957;DHT22;10637;47.970;7.830;2023-08-17T22:43:32;23.00;99.90
20957;DHT22;10637;47.970;7.830;2023-08-17T22:48:34;22.80;99.90
20957;DHT22;10637;47.970;7.830;2023-08-17T22:53:35;22.90;99.90
20957;DHT22;10637;47.970;7.830;2023-08-17T22:58:37;22.70;99.90
20957;DHT22;10637;47.970;7.830;2023-08-17T23:03:40;22.80;99.90
20957;DHT22;10637;47.970;7.830;2023-08-17T23:08:41;23.00;99.90
20957;DHT22;10637;47.970;7.830;2023-08-17T23:13:43;23.00;99.90
20957;DHT22;10637;47.970;7.830;2023-08-17T23:18:45;23.00;99.90
20957;DHT22;10637;47.970;7.830;2023-08-17T23:23:47;22.60;99.90
20957;DHT22;10637;47.970;7.830;2023-08-17T23:28:48;22.30;99.90
20957;DHT22;10637;47.970;7.830;2023-08-17T23:33:51;22.70;99.90
20957;DHT22;10637;47.970;7.830;2023-08-17T23:38:53;22.60;99.90
20957;DHT22;10637;47.970;7.830;2023-08-17T23:43:55;22.60;99.90
20957;DHT22;10637;47.970;7.830;2023-08-17T23:48:57;22.50;99.90
20957;DHT22;10637;47.970;7.830;2023-08-17T23:53:58;22.90;99.90
20957;DHT22;10637;47.970;7.830;2023-08-17T23:59:00;22.60;99.90
